sensor_id;sensor_type;location;lat;lon;timestamp;temperature;humidity
11812;DHT22;5963;50.184;9.162;2023-06-22T00:02:02;21.30;99.90
11812;DHT22;5963;50.184;9.162;2023-06-22T00:04:32;21.20;99.90
11812;DHT22;5963;50.184;9.162;2023-06-22T00:07:02;21.10;99.90
11812;DHT22;5963;50.184;9.162;2023-06-22T00:09:32;21.00;99.90
11812;DHT22;5963;50.184;9.162;2023-06-22T00:12:03;21.00;99.90
11812;DHT22;5963;50.184;9.162;2023-06-22T00:14:32;21.00;99.90
11812;DHT22;5963;50.184;9.162;2023-06-22T00:17:05;21.10;99.90
11812;DHT22;5963;50.184;9.162;2023-06-22T00:19:34;20.90;99.90
11812;DHT22;5963;50.184;9.162;2023-06-22T00:22:04;20.60;99.90
11812;DHT22;5963;50.184;9.162;2023-06-22T00:24:34;20.50;99.90
11812;DHT22;5963;50.184;9.162;2023-06-22T00:27:05;20.40;99.90
11812;DHT22;5963;50.184;9.162;2023-06-22T00:29:35;20.50;99.90
11812;DHT22;5963;50.184;9.162;2023-06-22T00:32:07;20.40;99.90
11812;DHT22;5963;50.184;9.162;2023-06-22T00:34:37;20.30;99.90
11812;DHT22;5963;50.184;9.162;2023-06-22T00:37:07;20.40;99.90
11812;DHT22;5963;50.184;9.162;2023-06-22T00:39:37;20.40;99.90
11812;DHT22;5963;50.184;9.162;2023-06-22T00:42:07;20.50;99.90
11812;DHT22;5963;50.184;9.162;2023-06-22T00:44:37;20.50;99.90
11812;DHT22;5963;50.184;9.162;2023-06-22T00:47:08;20.60;99.90
11812;DHT22;5963;50.184;9.162;2023-06-22T00:49:38;20.80;99.90
11812;DHT22;5963;50.184;9.162;2023-06-22T00:52:09;20.80;99.90
11812;DHT22;5963;50.184;9.162;2023-06-22T00:54:42;21.00;99.90
11812;DHT22;5963;50.184;9.162;2023-06-22T00:57:15;21.00;99.90
11812;DHT22;5963;50.184;9.162;2023-06-22T00:59:47;21.10;99.90
11812;DHT22;5963;50.184;9.162;2023-06-22T01:02:18;21.10;99.90
11812;DHT22;5963;50.184;9.162;2023-06-22T01:04:49;21.10;99.90
11812;DHT22;5963;50.184;9.162;2023-06-22T01:07:24;21.10;99.90
11812;DHT22;5963;50.184;9.162;2023-06-22T01:10:03;21.10;99.90
11812;DHT22;5963;50.184;9.162;2023-06-22T01:12:42;21.10;99.90
11812;DHT22;5963;50.184;9.162;2023-06-22T01:15:18;21.20;99.90
11812;DHT22;5963;50.184;9.162;2023-06-22T01:17:52;21.00;99.90
11812;DHT22;5963;50.184;9.162;2023-06-22T01:20:22;20.90;99.90
11812;DHT22;5963;50.184;9.162;2023-06-22T01:23:02;20.90;99.90
11812;DHT22;5963;50.184;9.162;2023-06-22T01:25:38;20.90;99.90
11812;DHT22;5963;50.184;9.162;2023-06-22T01:28:22;20.60;99.90
11812;DHT22;5963;50.184;9.162;2023-06-22T01:30:55;20.30;99.90
11812;DHT22;5963;50.184;9.162;2023-06-22T01:33:35;20.30;99.90
11812;DHT22;5963;50.184;9.162;2023-06-22T01:36:06;20.40;99.90
11812;DHT22;5963;50.184;9.162;2023-06-22T01:38:36;20.60;99.90
11812;DHT22;5963;50.184;9.162;2023-06-22T01:41:06;20.70;99.90
11812;DHT22;5963;50.184;9.162;2023-06-22T01:43:37;20.80;99.90
11812;DHT22;5963;50.184;9.162;2023-06-22T01:46:10;20.80;99.90
11812;DHT22;5963;50.184;9.162;2023-06-22T01:48:41;20.70;99.90
11812;DHT22;5963;50.184;9.162;2023-06-22T01:51:13;20.40;99.90
11812;DHT22;5963;50.184;9.162;2023-06-22T01:53:43;20.20;99.90
11812;DHT22;5963;50.184;9.162;2023-06-22T01:56:13;20.10;99.90
11812;DHT22;5963;50.184;9.162;2023-06-22T01:58:50;20.20;99.90
11812;DHT22;5963;50.184;9.162;2023-06-22T02:01:27;20.40;99.90
11812;DHT22;5963;50.184;9.162;2023-06-22T02:04:09;20.30;99.90
11812;DHT22;5963;50.184;9.162;2023-06-22T02:06:43;20.00;99.90
11812;DHT22;5963;50.184;9.162;2023-06-22T02:09:17;19.70;99.90
11812;DHT22;5963;50.184;9.162;2023-06-22T02:11:50;19.60;99.90
11812;DHT22;5963;50.184;9.162;2023-06-22T02:14:24;19.40;99.90
11812;DHT22;5963;50.184;9.162;2023-06-22T02:16:55;19.30;99.90
11812;DHT22;5963;50.184;9.162;2023-06-22T02:19:28;19.30;99.90
11812;DHT22;5963;50.184;9.162;2023-06-22T02:22:01;19.30;99.90
11812;DHT22;5963;50.184;9.162;2023-06-22T02:24:31;19.50;99.90
11812;DHT22;5963;50.184;9.162;2023-06-22T02:27:02;19.70;99.90
11812;DHT22;5963;50.184;9.162;2023-06-22T02:29:32;19.80;99.90
11812;DHT22;5963;50.184;9.162;2023-06-22T02:32:04;19.80;99.90
11812;DHT22;5963;50.184;9.162;2023-06-22T02:34:34;19.80;99.90
11812;DHT22;5963;50.184;9.162;2023-06-22T02:37:05;19.90;99.90
11812;DHT22;5963;50.184;9.162;2023-06-22T02:39:35;20.00;99.90
11812;DHT22;5963;50.184;9.162;2023-06-22T02:42:06;20.00;99.90
11812;DHT22;5963;50.184;9.162;2023-06-22T02:44:36;20.10;99.90
11812;DHT22;5963;50.184;9.162;2023-06-22T02:47:07;19.90;99.90
11812;DHT22;5963;50.184;9.162;2023-06-22T02:49:37;19.90;99.90
11812;DHT22;5963;50.184;9.162;2023-06-22T02:52:08;19.90;99.90
11812;DHT22;5963;50.184;9.162;2023-06-22T02:54:40;19.80;99.90
11812;DHT22;5963;50.184;9.162;2023-06-22T02:57:10;19.70;99.90
11812;DHT22;5963;50.184;9.162;2023-06-22T02:59:46;19.50;99.90
11812;DHT22;5963;50.184;9.162;2023-06-22T03:02:18;19.30;99.90
11812;DHT22;5963;50.184;9.162;2023-06-22T03:04:50;19.30;99.90
11812;DHT22;5963;50.184;9.162;2023-06-22T03:07:26;19.40;99.90
11812;DHT22;5963;50.184;9.162;2023-06-22T03:10:00;19.50;99.90
11812;DHT22;5963;50.184;9.162;2023-06-22T03:12:29;19.60;99.90
11812;DHT22;5963;50.184;9.162;2023-06-22T03:14:59;19.70;99.90
11812;DHT22;5963;50.184;9.162;2023-06-22T03:17:33;19.70;99.90
11812;DHT22;5963;50.184;9.162;2023-06-22T03:20:03;19.60;99.90
11812;DHT22;5963;50.184;9.162;2023-06-22T03:22:37;19.60;99.90
11812;DHT22;5963;50.184;9.162;2023-06-22T03:25:08;19.60;99.90
11812;DHT22;5963;50.184;9.162;2023-06-22T03:27:42;19.60;99.90
11812;DHT22;5963;50.184;9.162;2023-06-22T03:30:13;19.70;99.90
11812;DHT22;5963;50.184;9.162;2023-06-22T03:32:44;19.70;99.90
11812;DHT22;5963;50.184;9.162;2023-06-22T03:35:15;19.70;99.90
11812;DHT22;5963;50.184;9.162;2023-06-22T03:37:45;19.70;99.90
11812;DHT22;5963;50.184;9.162;2023-06-22T03:40:15;19.70;99.90
11812;DHT22;5963;50.184;9.162;2023-06-22T03:42:47;19.70;99.90
11812;DHT22;5963;50.184;9.162;2023-06-22T03:45:17;19.80;99.90
11812;DHT22;5963;50.184;9.162;2023-06-22T03:47:49;19.80;99.90
11812;DHT22;5963;50.184;9.162;2023-06-22T03:50:19;19.80;99.90
11812;DHT22;5963;50.184;9.162;2023-06-22T03:52:49;19.80;99.90
11812;DHT22;5963;50.184;9.162;2023-06-22T03:55:25;19.90;99.90
11812;DHT22;5963;50.184;9.162;2023-06-22T03:57:58;19.80;99.90
11812;DHT22;5963;50.184;9.162;2023-06-22T04:00:34;19.70;99.90
11812;DHT22;5963;50.184;9.162;2023-06-22T04:03:05;19.60;99.90
11812;DHT22;5963;50.184;9.162;2023-06-22T04:05:36;19.50;99.90
11812;DHT22;5963;50.184;9.162;2023-06-22T04:08:09;19.50;99.90
11812;DHT22;5963;50.184;9.162;2023-06-22T04:10:39;19.60;99.90
11812;DHT22;5963;50.184;9.162;2023-06-22T04:13:11;19.70;99.90
11812;DHT22;5963;50.184;9.162;2023-06-22T04:15:40;19.80;99.90
11812;DHT22;5963;50.184;9.162;2023-06-22T04:18:13;19.90;99.90
11812;DHT22;5963;50.184;9.162;2023-06-22T04:20:42;19.90;99.90
11812;DHT22;5963;50.184;9.162;2023-06-22T04:23:13;19.80;99.90
11812;DHT22;5963;50.184;9.162;2023-06-22T04:25:43;19.90;99.90
11812;DHT22;5963;50.184;9.162;2023-06-22T04:28:13;20.00;99.90
11812;DHT22;5963;50.184;9.162;2023-06-22T04:30:43;20.00;99.90
11812;DHT22;5963;50.184;9.162;2023-06-22T04:33:17;20.00;99.90
11812;DHT22;5963;50.184;9.162;2023-06-22T04:35:47;20.00;99.90
11812;DHT22;5963;50.184;9.162;2023-06-22T04:38:17;20.10;99.90
11812;DHT22;5963;50.184;9.162;2023-06-22T04:40:51;20.10;99.90
11812;DHT22;5963;50.184;9.162;2023-06-22T04:43:22;20.10;99.90
11812;DHT22;5963;50.184;9.162;2023-06-22T04:45:52;20.10;99.90
11812;DHT22;5963;50.184;9.162;2023-06-22T04:48:23;20.20;99.90
11812;DHT22;5963;50.184;9.162;2023-06-22T04:50:53;20.40;99.90
11812;DHT22;5963;50.184;9.162;2023-06-22T04:53:23;20.60;99.90
11812;DHT22;5963;50.184;9.162;2023-06-22T04:55:58;20.60;99.90
11812;DHT22;5963;50.184;9.162;2023-06-22T04:58:28;20.60;99.90
11812;DHT22;5963;50.184;9.162;2023-06-22T05:01:01;20.60;99.90
11812;DHT22;5963;50.184;9.162;2023-06-22T05:03:39;20.30;99.90
11812;DHT22;5963;50.184;9.162;2023-06-22T05:06:16;20.30;99.90
11812;DHT22;5963;50.184;9.162;2023-06-22T05:08:46;20.30;99.90
11812;DHT22;5963;50.184;9.162;2023-06-22T05:11:16;20.50;99.90
11812;DHT22;5963;50.184;9.162;2023-06-22T05:13:46;20.60;99.90
11812;DHT22;5963;50.184;9.162;2023-06-22T05:16:16;20.70;99.90
11812;DHT22;5963;50.184;9.162;2023-06-22T05:18:53;20.70;99.90
11812;DHT22;5963;50.184;9.162;2023-06-22T05:21:25;20.80;99.90
11812;DHT22;5963;50.184;9.162;2023-06-22T05:23:56;21.20;99.90
11812;DHT22;5963;50.184;9.162;2023-06-22T05:26:33;21.70;99.90
11812;DHT22;5963;50.184;9.162;2023-06-22T05:29:05;21.50;99.90
11812;DHT22;5963;50.184;9.162;2023-06-22T05:31:35;21.60;99.90
11812;DHT22;5963;50.184;9.162;2023-06-22T05:34:12;21.70;99.90
11812;DHT22;5963;50.184;9.162;2023-06-22T05:36:42;21.90;99.90
11812;DHT22;5963;50.184;9.162;2023-06-22T05:39:13;22.00;99.90
11812;DHT22;5963;50.184;9.162;2023-06-22T05:41:47;22.50;99.90
11812;DHT22;5963;50.184;9.162;2023-06-22T05:44:20;23.30;99.90
11812;DHT22;5963;50.184;9.162;2023-06-22T05:46:50;23.90;99.90
11812;DHT22;5963;50.184;9.162;2023-06-22T05:49:22;23.60;99.90
11812;DHT22;5963;50.184;9.162;2023-06-22T05:51:53;23.60;99.90
11812;DHT22;5963;50.184;9.162;2023-06-22T05:54:22;23.90;99.90
11812;DHT22;5963;50.184;9.162;2023-06-22T05:56:52;24.60;99.90
11812;DHT22;5963;50.184;9.162;2023-06-22T05:59:22;24.90;99.90
11812;DHT22;5963;50.184;9.162;2023-06-22T06:01:52;24.50;99.90
11812;DHT22;5963;50.184;9.162;2023-06-22T06:04:24;25.40;99.90
11812;DHT22;5963;50.184;9.162;2023-06-22T06:06:54;25.70;99.90
11812;DHT22;5963;50.184;9.162;2023-06-22T06:09:24;26.00;99.90
11812;DHT22;5963;50.184;9.162;2023-06-22T06:11:54;26.50;99.90
11812;DHT22;5963;50.184;9.162;2023-06-22T06:14:24;27.00;99.90
11812;DHT22;5963;50.184;9.162;2023-06-22T06:16:58;26.70;99.90
11812;DHT22;5963;50.184;9.162;2023-06-22T06:19:29;26.30;99.90
11812;DHT22;5963;50.184;9.162;2023-06-22T06:22:03;26.20;99.90
11812;DHT22;5963;50.184;9.162;2023-06-22T06:24:33;27.00;99.90
11812;DHT22;5963;50.184;9.162;2023-06-22T06:27:02;27.40;99.90
11812;DHT22;5963;50.184;9.162;2023-06-22T06:29:33;27.60;99.90
11812;DHT22;5963;50.184;9.162;2023-06-22T06:32:03;27.10;99.90
11812;DHT22;5963;50.184;9.162;2023-06-22T06:34:35;27.60;99.90
11812;DHT22;5963;50.184;9.162;2023-06-22T06:37:05;27.60;99.90
11812;DHT22;5963;50.184;9.162;2023-06-22T06:39:36;27.70;99.90
11812;DHT22;5963;50.184;9.162;2023-06-22T06:42:07;27.70;99.90
11812;DHT22;5963;50.184;9.162;2023-06-22T06:44:37;26.90;99.90
11812;DHT22;5963;50.184;9.162;2023-06-22T06:47:07;26.00;99.90
11812;DHT22;5963;50.184;9.162;2023-06-22T06:49:40;25.70;99.90
11812;DHT22;5963;50.184;9.162;2023-06-22T06:52:10;25.60;99.90
11812;DHT22;5963;50.184;9.162;2023-06-22T06:54:40;25.80;99.90
11812;DHT22;5963;50.184;9.162;2023-06-22T06:57:10;25.80;99.90
11812;DHT22;5963;50.184;9.162;2023-06-22T06:59:46;26.10;99.90
11812;DHT22;5963;50.184;9.162;2023-06-22T07:02:18;26.10;99.90
11812;DHT22;5963;50.184;9.162;2023-06-22T07:04:51;26.30;99.90
11812;DHT22;5963;50.184;9.162;2023-06-22T07:07:26;26.20;99.90
11812;DHT22;5963;50.184;9.162;2023-06-22T07:09:58;26.10;99.90
11812;DHT22;5963;50.184;9.162;2023-06-22T07:12:27;26.10;99.90
11812;DHT22;5963;50.184;9.162;2023-06-22T07:15:02;26.00;99.90
11812;DHT22;5963;50.184;9.162;2023-06-22T07:17:32;26.20;99.90
11812;DHT22;5963;50.184;9.162;2023-06-22T07:20:05;26.40;99.90
11812;DHT22;5963;50.184;9.162;2023-06-22T07:22:39;26.20;99.90
11812;DHT22;5963;50.184;9.162;2023-06-22T07:25:09;26.50;99.90
11812;DHT22;5963;50.184;9.162;2023-06-22T07:27:47;26.30;99.90
11812;DHT22;5963;50.184;9.162;2023-06-22T07:30:26;26.00;99.90
11812;DHT22;5963;50.184;9.162;2023-06-22T07:32:57;26.60;99.90
11812;DHT22;5963;50.184;9.162;2023-06-22T07:35:35;26.80;99.90
11812;DHT22;5963;50.184;9.162;2023-06-22T07:38:06;27.00;99.90
11812;DHT22;5963;50.184;9.162;2023-06-22T07:40:37;27.00;99.90
11812;DHT22;5963;50.184;9.162;2023-06-22T07:43:07;27.40;99.90
11812;DHT22;5963;50.184;9.162;2023-06-22T07:45:38;27.70;99.90
11812;DHT22;5963;50.184;9.162;2023-06-22T07:48:13;27.80;99.90
11812;DHT22;5963;50.184;9.162;2023-06-22T07:50:44;28.20;99.90
11812;DHT22;5963;50.184;9.162;2023-06-22T07:53:14;28.20;99.90
11812;DHT22;5963;50.184;9.162;2023-06-22T07:55:44;28.20;99.90
11812;DHT22;5963;50.184;9.162;2023-06-22T07:58:17;28.10;99.90
11812;DHT22;5963;50.184;9.162;2023-06-22T08:00:49;28.20;99.90
11812;DHT22;5963;50.184;9.162;2023-06-22T08:03:19;28.50;99.90
11812;DHT22;5963;50.184;9.162;2023-06-22T08:05:50;28.70;99.90
11812;DHT22;5963;50.184;9.162;2023-06-22T08:08:20;28.80;99.90
11812;DHT22;5963;50.184;9.162;2023-06-22T08:10:50;29.20;99.90
11812;DHT22;5963;50.184;9.162;2023-06-22T08:13:20;29.60;99.90
11812;DHT22;5963;50.184;9.162;2023-06-22T08:15:49;29.10;99.90
11812;DHT22;5963;50.184;9.162;2023-06-22T08:18:21;29.40;99.90
11812;DHT22;5963;50.184;9.162;2023-06-22T08:20:52;29.40;99.90
11812;DHT22;5963;50.184;9.162;2023-06-22T08:23:22;29.20;99.90
11812;DHT22;5963;50.184;9.162;2023-06-22T08:25:52;29.70;99.90
11812;DHT22;5963;50.184;9.162;2023-06-22T08:28:22;30.00;99.90
11812;DHT22;5963;50.184;9.162;2023-06-22T08:30:52;29.70;99.90
11812;DHT22;5963;50.184;9.162;2023-06-22T08:33:24;29.30;99.90
11812;DHT22;5963;50.184;9.162;2023-06-22T08:36:01;29.80;99.90
11812;DHT22;5963;50.184;9.162;2023-06-22T08:38:35;30.10;99.90
11812;DHT22;5963;50.184;9.162;2023-06-22T08:41:06;30.00;99.90
11812;DHT22;5963;50.184;9.162;2023-06-22T08:43:46;30.20;99.90
11812;DHT22;5963;50.184;9.162;2023-06-22T08:46:18;30.40;99.90
11812;DHT22;5963;50.184;9.162;2023-06-22T08:48:52;30.30;99.90
11812;DHT22;5963;50.184;9.162;2023-06-22T08:51:26;30.50;99.90
11812;DHT22;5963;50.184;9.162;2023-06-22T08:53:56;30.30;99.90
11812;DHT22;5963;50.184;9.162;2023-06-22T08:56:26;30.40;99.90
11812;DHT22;5963;50.184;9.162;2023-06-22T08:59:00;30.60;99.90
11812;DHT22;5963;50.184;9.162;2023-06-22T09:01:32;30.50;99.90
11812;DHT22;5963;50.184;9.162;2023-06-22T09:04:02;30.10;99.90
11812;DHT22;5963;50.184;9.162;2023-06-22T09:06:35;30.40;99.90
11812;DHT22;5963;50.184;9.162;2023-06-22T09:09:09;30.60;99.90
11812;DHT22;5963;50.184;9.162;2023-06-22T09:11:39;30.90;99.90
11812;DHT22;5963;50.184;9.162;2023-06-22T09:14:09;30.80;99.90
11812;DHT22;5963;50.184;9.162;2023-06-22T09:16:42;30.90;99.90
11812;DHT22;5963;50.184;9.162;2023-06-22T09:19:11;31.30;99.90
11812;DHT22;5963;50.184;9.162;2023-06-22T09:21:47;31.50;99.90
11812;DHT22;5963;50.184;9.162;2023-06-22T09:24:17;31.40;99.90
11812;DHT22;5963;50.184;9.162;2023-06-22T09:26:47;30.90;99.90
11812;DHT22;5963;50.184;9.162;2023-06-22T09:29:21;31.00;99.90
11812;DHT22;5963;50.184;9.162;2023-06-22T09:31:51;30.70;99.90
11812;DHT22;5963;50.184;9.162;2023-06-22T09:34:22;31.20;99.90
11812;DHT22;5963;50.184;9.162;2023-06-22T09:36:53;31.40;99.90
11812;DHT22;5963;50.184;9.162;2023-06-22T09:39:29;31.50;99.90
11812;DHT22;5963;50.184;9.162;2023-06-22T09:41:59;31.00;99.90
11812;DHT22;5963;50.184;9.162;2023-06-22T09:44:29;30.90;99.90
11812;DHT22;5963;50.184;9.162;2023-06-22T09:46:59;31.30;99.90
11812;DHT22;5963;50.184;9.162;2023-06-22T09:49:29;31.90;99.90
11812;DHT22;5963;50.184;9.162;2023-06-22T09:52:17;31.60;99.90
11812;DHT22;5963;50.184;9.162;2023-06-22T09:55:10;31.60;99.90
11812;DHT22;5963;50.184;9.162;2023-06-22T09:57:49;31.70;99.90
11812;DHT22;5963;50.184;9.162;2023-06-22T10:00:20;31.40;99.90
11812;DHT22;5963;50.184;9.162;2023-06-22T10:02:52;31.60;99.90
11812;DHT22;5963;50.184;9.162;2023-06-22T10:05:28;31.60;99.90
11812;DHT22;5963;50.184;9.162;2023-06-22T10:08:06;31.40;99.90
11812;DHT22;5963;50.184;9.162;2023-06-22T10:10:41;31.50;99.90
11812;DHT22;5963;50.184;9.162;2023-06-22T10:13:12;31.00;99.90
11812;DHT22;5963;50.184;9.162;2023-06-22T10:15:43;30.60;99.90
11812;DHT22;5963;50.184;9.162;2023-06-22T10:18:18;31.10;99.90
11812;DHT22;5963;50.184;9.162;2023-06-22T10:20:51;31.80;99.90
11812;DHT22;5963;50.184;9.162;2023-06-22T10:23:29;32.00;99.90
11812;DHT22;5963;50.184;9.162;2023-06-22T10:25:59;31.90;99.90
11812;DHT22;5963;50.184;9.162;2023-06-22T10:28:29;32.70;99.90
11812;DHT22;5963;50.184;9.162;2023-06-22T10:31:01;32.10;99.90
11812;DHT22;5963;50.184;9.162;2023-06-22T10:33:36;31.90;99.90
11812;DHT22;5963;50.184;9.162;2023-06-22T10:36:09;32.20;99.90
11812;DHT22;5963;50.184;9.162;2023-06-22T10:38:41;32.10;99.90
11812;DHT22;5963;50.184;9.162;2023-06-22T10:41:11;32.10;99.90
11812;DHT22;5963;50.184;9.162;2023-06-22T10:43:44;31.30;99.90
11812;DHT22;5963;50.184;9.162;2023-06-22T10:46:14;31.00;99.90
11812;DHT22;5963;50.184;9.162;2023-06-22T10:48:44;31.20;99.90
11812;DHT22;5963;50.184;9.162;2023-06-22T10:51:14;31.50;99.90
11812;DHT22;5963;50.184;9.162;2023-06-22T10:53:45;31.50;99.90
11812;DHT22;5963;50.184;9.162;2023-06-22T10:56:20;31.70;99.90
11812;DHT22;5963;50.184;9.162;2023-06-22T10:58:50;31.80;99.90
11812;DHT22;5963;50.184;9.162;2023-06-22T11:01:23;32.30;99.90
11812;DHT22;5963;50.184;9.162;2023-06-22T11:04:05;32.30;99.90
11812;DHT22;5963;50.184;9.162;2023-06-22T11:06:40;32.60;99.90
11812;DHT22;5963;50.184;9.162;2023-06-22T11:09:21;33.20;99.90
11812;DHT22;5963;50.184;9.162;2023-06-22T11:11:57;33.40;99.90
11812;DHT22;5963;50.184;9.162;2023-06-22T11:14:28;33.30;99.90
11812;DHT22;5963;50.184;9.162;2023-06-22T11:16:58;33.10;99.90
11812;DHT22;5963;50.184;9.162;2023-06-22T11:19:28;33.20;99.90
11812;DHT22;5963;50.184;9.162;2023-06-22T11:22:05;32.80;99.90
11812;DHT22;5963;50.184;9.162;2023-06-22T11:24:51;33.50;99.90
11812;DHT22;5963;50.184;9.162;2023-06-22T11:27:24;33.00;99.90
11812;DHT22;5963;50.184;9.162;2023-06-22T11:29:55;33.50;99.90
11812;DHT22;5963;50.184;9.162;2023-06-22T11:32:25;34.00;99.90
11812;DHT22;5963;50.184;9.162;2023-06-22T11:35:04;34.20;99.90
11812;DHT22;5963;50.184;9.162;2023-06-22T11:37:34;34.00;99.90
11812;DHT22;5963;50.184;9.162;2023-06-22T11:40:07;34.10;99.90
11812;DHT22;5963;50.184;9.162;2023-06-22T11:42:40;34.00;99.90
11812;DHT22;5963;50.184;9.162;2023-06-22T11:45:11;33.20;99.90
11812;DHT22;5963;50.184;9.162;2023-06-22T11:47:41;33.20;99.90
11812;DHT22;5963;50.184;9.162;2023-06-22T11:50:11;32.80;99.90
11812;DHT22;5963;50.184;9.162;2023-06-22T11:52:41;33.20;99.90
11812;DHT22;5963;50.184;9.162;2023-06-22T11:55:13;33.00;99.90
11812;DHT22;5963;50.184;9.162;2023-06-22T11:57:53;33.30;99.90
11812;DHT22;5963;50.184;9.162;2023-06-22T12:00:23;33.30;99.90
11812;DHT22;5963;50.184;9.162;2023-06-22T12:03:00;33.60;99.90
11812;DHT22;5963;50.184;9.162;2023-06-22T12:05:30;33.20;99.90
11812;DHT22;5963;50.184;9.162;2023-06-22T12:08:00;33.10;99.90
11812;DHT22;5963;50.184;9.162;2023-06-22T12:10:31;33.10;99.90
11812;DHT22;5963;50.184;9.162;2023-06-22T12:13:01;32.40;99.90
11812;DHT22;5963;50.184;9.162;2023-06-22T12:15:31;32.20;99.90
11812;DHT22;5963;50.184;9.162;2023-06-22T12:18:10;32.50;99.90
11812;DHT22;5963;50.184;9.162;2023-06-22T12:20:42;32.80;99.90
11812;DHT22;5963;50.184;9.162;2023-06-22T12:23:11;33.40;99.90
11812;DHT22;5963;50.184;9.162;2023-06-22T12:25:44;33.20;99.90
11812;DHT22;5963;50.184;9.162;2023-06-22T12:28:14;33.30;99.90
11812;DHT22;5963;50.184;9.162;2023-06-22T12:30:51;33.70;99.90
11812;DHT22;5963;50.184;9.162;2023-06-22T12:35:55;33.20;99.90
11812;DHT22;5963;50.184;9.162;2023-06-22T12:38:25;32.70;99.90
11812;DHT22;5963;50.184;9.162;2023-06-22T12:40:55;32.60;99.90
11812;DHT22;5963;50.184;9.162;2023-06-22T12:43:25;32.80;99.90
11812;DHT22;5963;50.184;9.162;2023-06-22T12:45:58;33.30;99.90
11812;DHT22;5963;50.184;9.162;2023-06-22T12:48:30;33.10;99.90
11812;DHT22;5963;50.184;9.162;2023-06-22T12:51:00;33.50;99.90
11812;DHT22;5963;50.184;9.162;2023-06-22T12:53:30;33.20;99.90
11812;DHT22;5963;50.184;9.162;2023-06-22T12:56:00;33.10;99.90
11812;DHT22;5963;50.184;9.162;2023-06-22T12:58:29;32.90;99.90
11812;DHT22;5963;50.184;9.162;2023-06-22T13:00:59;33.00;99.90
11812;DHT22;5963;50.184;9.162;2023-06-22T13:03:31;33.30;99.90
11812;DHT22;5963;50.184;9.162;2023-06-22T13:06:01;33.00;99.90
11812;DHT22;5963;50.184;9.162;2023-06-22T13:08:32;32.50;99.90
11812;DHT22;5963;50.184;9.162;2023-06-22T13:11:15;32.50;99.90
11812;DHT22;5963;50.184;9.162;2023-06-22T13:13:47;32.70;99.90
11812;DHT22;5963;50.184;9.162;2023-06-22T13:16:17;32.60;99.90
11812;DHT22;5963;50.184;9.162;2023-06-22T13:18:49;32.40;99.90
11812;DHT22;5963;50.184;9.162;2023-06-22T13:21:23;32.70;99.90
11812;DHT22;5963;50.184;9.162;2023-06-22T13:23:53;32.50;99.90
11812;DHT22;5963;50.184;9.162;2023-06-22T13:26:24;33.10;99.90
11812;DHT22;5963;50.184;9.162;2023-06-22T13:28:54;33.20;99.90
11812;DHT22;5963;50.184;9.162;2023-06-22T13:31:26;33.00;99.90
11812;DHT22;5963;50.184;9.162;2023-06-22T13:33:57;32.90;99.90
11812;DHT22;5963;50.184;9.162;2023-06-22T13:36:30;33.00;99.90
11812;DHT22;5963;50.184;9.162;2023-06-22T13:39:00;33.00;99.90
11812;DHT22;5963;50.184;9.162;2023-06-22T13:41:32;32.80;99.90
11812;DHT22;5963;50.184;9.162;2023-06-22T13:44:02;32.80;99.90
11812;DHT22;5963;50.184;9.162;2023-06-22T13:46:32;32.80;99.90
11812;DHT22;5963;50.184;9.162;2023-06-22T13:49:03;32.70;99.90
11812;DHT22;5963;50.184;9.162;2023-06-22T13:51:33;32.70;99.90
11812;DHT22;5963;50.184;9.162;2023-06-22T13:54:03;32.70;99.90
11812;DHT22;5963;50.184;9.162;2023-06-22T13:56:41;32.90;99.90
11812;DHT22;5963;50.184;9.162;2023-06-22T13:59:11;33.60;99.90
11812;DHT22;5963;50.184;9.162;2023-06-22T14:01:41;33.50;99.90
11812;DHT22;5963;50.184;9.162;2023-06-22T14:04:29;33.50;99.90
11812;DHT22;5963;50.184;9.162;2023-06-22T14:06:59;32.90;99.90
11812;DHT22;5963;50.184;9.162;2023-06-22T14:09:30;33.10;99.90
11812;DHT22;5963;50.184;9.162;2023-06-22T14:12:03;32.80;99.90
11812;DHT22;5963;50.184;9.162;2023-06-22T14:14:33;33.10;99.90
11812;DHT22;5963;50.184;9.162;2023-06-22T14:17:03;33.20;99.90
11812;DHT22;5963;50.184;9.162;2023-06-22T14:19:35;33.30;99.90
11812;DHT22;5963;50.184;9.162;2023-06-22T14:22:07;33.50;99.90
11812;DHT22;5963;50.184;9.162;2023-06-22T14:24:38;33.60;99.90
11812;DHT22;5963;50.184;9.162;2023-06-22T14:27:07;33.20;99.90
11812;DHT22;5963;50.184;9.162;2023-06-22T14:29:45;33.30;99.90
11812;DHT22;5963;50.184;9.162;2023-06-22T14:32:21;32.70;99.90
11812;DHT22;5963;50.184;9.162;2023-06-22T14:34:53;33.00;99.90
11812;DHT22;5963;50.184;9.162;2023-06-22T14:37:23;32.90;99.90
11812;DHT22;5963;50.184;9.162;2023-06-22T14:39:53;32.70;99.90
11812;DHT22;5963;50.184;9.162;2023-06-22T14:42:27;32.80;99.90
11812;DHT22;5963;50.184;9.162;2023-06-22T14:45:09;32.80;99.90
11812;DHT22;5963;50.184;9.162;2023-06-22T14:47:48;33.20;99.90
11812;DHT22;5963;50.184;9.162;2023-06-22T14:50:22;33.70;99.90
11812;DHT22;5963;50.184;9.162;2023-06-22T14:52:52;33.50;99.90
11812;DHT22;5963;50.184;9.162;2023-06-22T14:55:24;33.00;99.90
11812;DHT22;5963;50.184;9.162;2023-06-22T14:57:54;32.70;99.90
11812;DHT22;5963;50.184;9.162;2023-06-22T15:00:30;32.80;99.90
11812;DHT22;5963;50.184;9.162;2023-06-22T15:03:01;32.80;99.90
11812;DHT22;5963;50.184;9.162;2023-06-22T15:05:34;32.80;99.90
11812;DHT22;5963;50.184;9.162;2023-06-22T15:08:07;32.50;99.90
11812;DHT22;5963;50.184;9.162;2023-06-22T15:10:40;32.40;99.90
11812;DHT22;5963;50.184;9.162;2023-06-22T15:13:11;32.40;99.90
11812;DHT22;5963;50.184;9.162;2023-06-22T15:15:45;32.50;99.90
11812;DHT22;5963;50.184;9.162;2023-06-22T15:18:22;32.50;99.90
11812;DHT22;5963;50.184;9.162;2023-06-22T15:20:56;32.40;99.90
11812;DHT22;5963;50.184;9.162;2023-06-22T15:23:27;32.50;99.90
11812;DHT22;5963;50.184;9.162;2023-06-22T15:26:00;32.20;99.90
11812;DHT22;5963;50.184;9.162;2023-06-22T15:28:32;32.00;99.90
11812;DHT22;5963;50.184;9.162;2023-06-22T15:31:05;32.10;99.90
11812;DHT22;5963;50.184;9.162;2023-06-22T15:33:35;32.00;99.90
11812;DHT22;5963;50.184;9.162;2023-06-22T15:36:07;31.90;99.90
11812;DHT22;5963;50.184;9.162;2023-06-22T15:38:37;31.90;99.90
11812;DHT22;5963;50.184;9.162;2023-06-22T15:41:07;32.10;99.90
11812;DHT22;5963;50.184;9.162;2023-06-22T15:43:37;32.20;99.90
11812;DHT22;5963;50.184;9.162;2023-06-22T15:46:07;31.90;99.90
11812;DHT22;5963;50.184;9.162;2023-06-22T15:48:41;31.80;99.90
11812;DHT22;5963;50.184;9.162;2023-06-22T15:51:13;31.60;99.90
11812;DHT22;5963;50.184;9.162;2023-06-22T15:53:43;31.40;99.90
11812;DHT22;5963;50.184;9.162;2023-06-22T15:56:13;31.40;99.90
11812;DHT22;5963;50.184;9.162;2023-06-22T15:58:45;31.20;99.90
11812;DHT22;5963;50.184;9.162;2023-06-22T16:01:15;31.20;99.90
11812;DHT22;5963;50.184;9.162;2023-06-22T16:03:44;31.20;99.90
11812;DHT22;5963;50.184;9.162;2023-06-22T16:06:16;31.30;99.90
11812;DHT22;5963;50.184;9.162;2023-06-22T16:09:05;31.00;99.90
11812;DHT22;5963;50.184;9.162;2023-06-22T16:11:47;30.60;99.90
11812;DHT22;5963;50.184;9.162;2023-06-22T16:14:19;30.60;99.90
11812;DHT22;5963;50.184;9.162;2023-06-22T16:16:54;30.60;99.90
11812;DHT22;5963;50.184;9.162;2023-06-22T16:19:29;30.30;99.90